Time;durP1;ratioP1;P1;durP2;ratioP2;P2;SDS_P1;SDS_P2;PMS_P1;PMS_P2;Temp;Humidity;BMP_temperature;BMP_pressure;BME280_temperature;BME280_humidity;BME280_pressure;Samples;Min_cycle;Max_cycle;Signal;HPM_P1;HPM_P2
2022/11/10 00:02:04;;;;;;;;;1.00;1.00;;;;;12.31;70.09;99974.53;5135626;27;9204;-59
2022/11/10 00:04:31;;;;;;;;;1.00;1.00;;;;;12.32;70.28;99984.22;5135910;27;8846;-58
2022/11/10 00:06:59;;;;;;;;;1.00;0.75;;;;;12.33;69.95;99985.91;5135767;27;8864;-58
2022/11/10 00:09:27;;;;;;;;;2.00;2.00;;;;;12.33;70.34;100000.13;5136320;27;8864;-57
2022/11/10 00:11:55;;;;;;;;;1.00;0.00;;;;;12.35;69.97;99994.63;5136233;27;8806;-59
2022/11/10 00:17:08;;;;;;;;;0.50;0.50;;;;;12.34;70.05;99995.59;5136230;27;8904;-58
2022/11/10 00:19:36;;;;;;;;;1.00;0.25;;;;;12.32;70.29;100000.25;5136133;27;8825;-58
2022/11/10 00:22:04;;;;;;;;;0.00;0.00;;;;;12.33;70.13;100004.59;5135161;27;8825;-58
2022/11/10 00:24:32;;;;;;;;;1.00;1.00;;;;;12.32;70.26;100002.91;5136336;27;9520;-58
2022/11/10 00:26:59;;;;;;;;;1.00;1.00;;;;;12.31;70.02;100007.41;5136062;27;8922;-58
2022/11/10 00:29:27;;;;;;;;;3.00;1.00;;;;;12.30;70.65;100010.22;5136250;27;8905;-56
2022/11/10 00:31:55;;;;;;;;;0.00;0.00;;;;;12.28;70.53;100006.81;5135914;27;8838;-59
2022/11/10 00:34:24;;;;;;;;;3.00;3.00;;;;;12.26;70.29;100014.13;5136084;27;8890;-56
2022/11/10 00:36:51;;;;;;;;;1.00;1.00;;;;;12.23;71.08;100017.06;5136390;27;8845;-59
2022/11/10 00:39:19;;;;;;;;;1.00;1.00;;;;;12.21;71.56;100013.66;5136255;27;8945;-58
2022/11/10 00:41:48;;;;;;;;;1.00;1.00;;;;;12.17;71.33;100010.41;5135596;27;8797;-58
2022/11/10 00:44:16;;;;;;;;;1.00;1.00;;;;;12.14;71.03;100015.13;5134730;27;8864;-59
2022/11/10 00:46:44;;;;;;;;;0.00;0.00;;;;;12.12;71.19;100025.13;5135652;27;8821;-58
2022/11/10 00:49:12;;;;;;;;;0.00;0.00;;;;;12.09;71.48;100022.72;5135684;27;8821;-56
2022/11/10 00:51:39;;;;;;;;;1.00;0.50;;;;;12.06;71.38;100026.50;5135374;27;8834;-58
2022/11/10 00:54:07;;;;;;;;;1.00;1.00;;;;;12.05;71.41;100040.81;5135666;27;8806;-59
2022/11/10 00:56:35;;;;;;;;;1.00;1.00;;;;;12.04;71.83;100035.59;5135225;27;8845;-57
2022/11/10 00:59:03;;;;;;;;;1.00;0.00;;;;;12.02;71.28;100037.56;5135875;27;8887;-58
2022/11/10 01:01:31;;;;;;;;;0.00;0.00;;;;;12.02;71.30;100038.38;5136089;27;8846;-59
2022/11/10 01:03:59;;;;;;;;;1.00;1.00;;;;;12.03;71.85;100031.22;5135364;27;8817;-57
2022/11/10 01:06:26;;;;;;;;;1.00;1.00;;;;;12.03;71.59;100041.91;5135342;27;8818;-58
2022/11/10 01:08:54;;;;;;;;;1.00;1.00;;;;;12.02;72.07;100037.56;5135734;27;8822;-57
2022/11/10 01:11:22;;;;;;;;;0.00;0.00;;;;;12.00;72.09;100036.84;5136226;27;8822;-57
2022/11/10 01:13:49;;;;;;;;;1.00;1.00;;;;;11.96;71.76;100038.06;5135693;27;8837;-56
2022/11/10 01:16:18;;;;;;;;;2.00;2.00;;;;;11.95;71.81;100042.53;5135534;27;8826;-58
2022/11/10 01:18:46;;;;;;;;;2.50;2.50;;;;;11.97;72.23;100038.91;5135359;27;9537;-57
2022/11/10 01:21:14;;;;;;;;;0.00;0.00;;;;;11.98;71.62;100035.28;5135720;27;8825;-56
2022/11/10 01:23:42;;;;;;;;;1.50;1.00;;;;;11.97;71.69;100050.41;5137240;27;9532;-58
2022/11/10 01:26:10;;;;;;;;;3.25;3.00;;;;;11.99;72.09;100060.00;5139251;27;8866;-58
2022/11/10 01:28:37;;;;;;;;;1.50;1.50;;;;;11.99;72.07;100061.81;5139615;27;8825;-58
2022/11/10 01:31:05;;;;;;;;;1.00;1.00;;;;;12.02;71.72;100054.41;5139758;27;8817;-59
2022/11/10 01:33:32;;;;;;;;;1.00;0.00;;;;;12.07;72.60;100056.72;5140706;27;8806;-58
2022/11/10 01:36:00;;;;;;;;;1.00;1.00;;;;;12.11;72.50;100058.13;5140172;27;8837;-58
2022/11/10 01:38:28;;;;;;;;;2.50;0.00;;;;;12.13;72.21;100067.72;5139789;27;8814;-58
2022/11/10 01:40:55;;;;;;;;;0.50;0.50;;;;;12.16;71.74;100077.28;5139806;27;8822;-58
2022/11/10 01:43:26;;;;;;;;;1.00;0.50;;;;;12.19;71.68;100082.34;5139582;27;8837;-57
2022/11/10 01:45:54;;;;;;;;;0.75;0.75;;;;;12.21;71.84;100075.91;5139992;27;8906;-57
2022/11/10 01:48:21;;;;;;;;;1.00;1.00;;;;;12.22;72.16;100082.09;5139421;27;8825;-57
2022/11/10 01:50:49;;;;;;;;;1.00;1.00;;;;;12.20;71.99;100068.03;5139280;27;8836;-58
2022/11/10 01:53:17;;;;;;;;;1.00;1.00;;;;;12.17;72.06;100077.13;5139065;27;8882;-57
2022/11/10 01:55:44;;;;;;;;;1.00;1.00;;;;;12.15;72.01;100078.25;5138948;27;8818;-57
2022/11/10 01:58:12;;;;;;;;;1.50;1.00;;;;;12.12;72.04;100081.16;5139277;27;8837;-57
2022/11/10 02:00:40;;;;;;;;;2.50;2.50;;;;;12.09;72.42;100073.44;5139313;27;8825;-57
2022/11/10 02:03:08;;;;;;;;;1.00;0.75;;;;;12.09;72.71;100090.28;5138567;27;8829;-56
2022/11/10 02:05:35;;;;;;;;;1.75;1.50;;;;;12.11;72.48;100075.00;5138571;27;8898;-58
2022/11/10 02:08:05;;;;;;;;;1.00;1.00;;;;;12.14;71.91;100085.41;5138820;27;8925;-57
2022/11/10 02:10:32;;;;;;;;;0.00;0.00;;;;;12.14;72.31;100089.88;5139088;27;8894;-58
2022/11/10 02:13:01;;;;;;;;;2.00;2.00;;;;;12.12;71.85;100097.19;5138968;27;8818;-57
2022/11/10 02:18:36;;;;;;;;;2.50;1.50;;;;;12.08;72.60;100103.78;5130811;27;8778;-58
2022/11/10 02:21:03;;;;;;;;;1.00;1.00;;;;;12.07;72.17;100108.25;5139069;27;8842;-58
2022/11/10 02:23:32;;;;;;;;;1.00;1.00;;;;;12.06;72.47;100103.88;5137776;27;8826;-56
2022/11/10 02:26:00;;;;;;;;;0.00;0.00;;;;;12.06;72.31;100100.34;5138897;27;8902;-57
2022/11/10 02:28:27;;;;;;;;;0.75;0.75;;;;;12.04;73.03;100111.19;5137889;27;8838;-56
2022/11/10 02:30:55;;;;;;;;;0.75;0.75;;;;;12.02;73.17;100114.97;5138681;27;8829;-58
2022/11/10 02:33:22;;;;;;;;;1.00;1.00;;;;;11.99;72.42;100113.38;5138591;27;8861;-58
2022/11/10 02:35:51;;;;;;;;;3.00;3.00;;;;;11.93;72.82;100119.22;5138780;27;8906;-57
2022/11/10 02:38:18;;;;;;;;;0.75;0.75;;;;;11.89;72.88;100119.59;5138435;27;9516;-57
2022/11/10 02:40:46;;;;;;;;;1.00;1.00;;;;;11.83;73.44;100112.09;5138412;27;8821;-58
2022/11/10 02:43:13;;;;;;;;;0.25;0.25;;;;;11.78;73.07;100116.13;5137946;27;8913;-58
2022/11/10 02:45:44;;;;;;;;;1.00;1.00;;;;;11.74;73.49;100123.53;5138167;27;9588;-58
2022/11/10 02:48:12;;;;;;;;;1.00;1.00;;;;;11.72;73.21;100114.81;5137571;27;8817;-58
2022/11/10 02:50:39;;;;;;;;;2.00;2.00;;;;;11.72;73.54;100120.13;5137633;27;8822;-58
2022/11/10 02:53:07;;;;;;;;;1.00;1.00;;;;;11.71;73.41;100118.44;5138103;27;8810;-58
2022/11/10 02:55:36;;;;;;;;;1.00;1.00;;;;;11.71;73.34;100118.44;5138069;27;8830;-58
2022/11/10 02:58:03;;;;;;;;;1.00;1.00;;;;;11.71;73.52;100118.44;5137877;27;8818;-58
2022/11/10 03:00:31;;;;;;;;;3.00;3.00;;;;;11.71;73.93;100129.13;5137777;27;8809;-58
2022/11/10 03:03:00;;;;;;;;;3.00;3.00;;;;;11.71;73.26;100136.25;5137695;27;8910;-58
2022/11/10 03:05:27;;;;;;;;;1.00;0.50;;;;;11.70;73.80;100137.22;5137451;27;9571;-58
2022/11/10 03:07:55;;;;;;;;;1.00;1.00;;;;;11.68;73.35;100131.19;5137828;27;8842;-58
2022/11/10 03:10:22;;;;;;;;;2.50;2.00;;;;;11.66;74.01;100141.09;5137447;27;8814;-58
2022/11/10 03:12:50;;;;;;;;;1.50;1.00;;;;;11.65;73.78;100145.63;5137438;27;8817;-58
2022/11/10 03:15:18;;;;;;;;;0.75;0.75;;;;;11.63;74.18;100152.91;5137862;27;8841;-57
2022/11/10 03:17:45;;;;;;;;;3.00;2.00;;;;;11.62;74.01;100155.69;5137601;27;8833;-58
2022/11/10 03:20:13;;;;;;;;;3.25;2.00;;;;;11.63;74.15;100165.38;5137591;27;8813;-58
2022/11/10 03:22:41;;;;;;;;;2.00;2.00;;;;;11.62;73.87;100156.53;5137493;27;8830;-58
2022/11/10 03:25:09;;;;;;;;;1.50;0.25;;;;;11.61;74.02;100152.16;5137040;27;8848;-58
2022/11/10 03:27:37;;;;;;;;;3.00;3.00;;;;;11.61;73.85;100154.81;5137499;27;8829;-58
2022/11/10 03:30:04;;;;;;;;;3.00;3.00;;;;;11.62;73.66;100145.88;5137203;27;8874;-57
2022/11/10 03:32:32;;;;;;;;;1.00;1.00;;;;;11.62;73.76;100139.69;5137174;27;8826;-58
2022/11/10 03:34:59;;;;;;;;;2.00;1.00;;;;;11.62;73.88;100145.88;5137336;27;8818;-58
2022/11/10 03:37:27;;;;;;;;;1.50;1.50;;;;;11.63;73.99;100146.69;5137060;27;8822;-57
2022/11/10 03:39:55;;;;;;;;;1.50;1.50;;;;;11.64;73.81;100143.91;5137371;27;8826;-58
2022/11/10 03:42:22;;;;;;;;;3.00;2.00;;;;;11.63;73.87;100152.91;5137144;27;8914;-57
2022/11/10 03:44:51;;;;;;;;;0.75;0.75;;;;;11.59;74.23;100156.78;5136561;27;8817;-58
2022/11/10 03:47:18;;;;;;;;;1.00;1.00;;;;;11.56;74.64;100162.31;5136630;27;9501;-57
2022/11/10 03:49:46;;;;;;;;;1.00;1.00;;;;;11.54;74.30;100168.75;5137203;27;8821;-59
2022/11/10 03:52:14;;;;;;;;;2.50;1.00;;;;;11.52;74.49;100174.19;5136766;27;8925;-60
2022/11/10 03:54:42;;;;;;;;;3.00;1.50;;;;;11.52;74.27;100181.38;5136660;27;8882;-60
2022/11/10 03:57:11;;;;;;;;;1.50;1.50;;;;;11.51;74.81;100180.50;5136438;27;8829;-58
2022/11/10 03:59:38;;;;;;;;;2.00;2.00;;;;;11.52;74.77;100186.69;5136908;27;8822;-58
2022/11/10 04:02:06;;;;;;;;;0.00;0.00;;;;;11.51;74.82;100190.34;5136535;27;8910;-57
2022/11/10 04:10:04;;;;;;;;;3.00;1.00;;;;;11.48;74.26;100188.75;5136546;27;8841;-58
2022/11/10 04:20:44;;;;;;;;;1.00;1.00;;;;;11.43;74.80;100214.94;5135964;27;8834;-57
2022/11/10 04:23:27;;;;;;;;;3.25;1.50;;;;;11.41;74.87;100232.88;5136107;27;8810;-58
2022/11/10 04:28:40;;;;;;;;;3.25;1.50;;;;;11.39;74.70;100240.13;5136325;27;8882;-58
2022/11/10 04:31:08;;;;;;;;;4.00;3.75;;;;;11.40;75.13;100244.53;5136084;27;8921;-58
2022/11/10 04:33:37;;;;;;;;;2.00;2.00;;;;;11.41;74.88;100243.53;5135924;27;8822;-58
2022/11/10 04:36:04;;;;;;;;;2.00;2.00;;;;;11.42;74.32;100247.91;5136410;27;8825;-58
2022/11/10 04:38:32;;;;;;;;;1.00;1.00;;;;;11.45;74.97;100260.97;5136290;27;8829;-58
2022/11/10 04:41:00;;;;;;;;;3.00;2.50;;;;;11.49;74.47;100250.94;5135853;27;9682;-58
2022/11/10 04:43:29;;;;;;;;;2.00;2.00;;;;;11.49;75.01;100257.13;5135887;27;9504;-57
2022/11/10 04:45:57;;;;;;;;;2.00;2.00;;;;;11.51;74.65;100257.84;5135846;27;9616;-57
2022/11/10 04:48:24;;;;;;;;;5.00;3.75;;;;;11.55;74.40;100253.13;5135770;27;8886;-58
2022/11/10 04:50:52;;;;;;;;;3.00;3.00;;;;;11.59;74.36;100270.63;5135992;27;8801;-57
2022/11/10 04:53:19;;;;;;;;;1.50;1.00;;;;;11.63;74.13;100280.06;5135660;27;8821;-58
2022/11/10 04:55:47;;;;;;;;;1.50;1.50;;;;;11.67;74.02;100271.72;5135775;27;8809;-57
2022/11/10 04:58:16;;;;;;;;;0.00;0.00;;;;;11.72;74.09;100290.88;5139550;27;8814;-58
2022/11/10 05:00:43;;;;;;;;;4.00;4.00;;;;;11.78;74.20;100294.88;5139919;27;8906;-58
2022/11/10 05:03:11;;;;;;;;;3.50;2.00;;;;;11.82;74.14;100291.00;5139810;27;9636;-58
2022/11/10 05:05:39;;;;;;;;;3.25;2.00;;;;;11.84;73.61;100284.56;5139316;27;8976;-58
2022/11/10 05:08:06;;;;;;;;;1.50;1.00;;;;;11.85;73.50;100302.28;5139282;27;8849;-58
2022/11/10 05:10:34;;;;;;;;;3.00;3.00;;;;;11.85;73.53;100298.75;5139560;27;8825;-58
2022/11/10 05:13:02;;;;;;;;;1.00;1.00;;;;;11.81;73.86;100305.28;5138772;27;8892;-58
2022/11/10 05:15:29;;;;;;;;;4.00;4.00;;;;;11.77;73.97;100299.38;5138885;27;8818;-58
2022/11/10 05:17:57;;;;;;;;;4.00;3.50;;;;;11.71;73.92;100302.53;5138916;27;8890;-58
2022/11/10 05:20:28;;;;;;;;;1.50;1.00;;;;;11.65;74.17;100302.13;5139327;27;8814;-58
2022/11/10 05:25:41;;;;;;;;;3.25;3.25;;;;;11.52;74.43;100309.38;5137551;27;8826;-58
2022/11/10 05:28:08;;;;;;;;;4.00;3.25;;;;;11.46;74.80;100307.19;5137554;27;8826;-58
2022/11/10 05:30:36;;;;;;;;;0.00;0.00;;;;;11.41;75.33;100312.00;5137811;27;8822;-57
2022/11/10 05:33:04;;;;;;;;;3.00;3.00;;;;;11.35;74.72;100321.34;5138341;27;8845;-57
2022/11/10 05:35:31;;;;;;;;;3.00;1.00;;;;;11.34;75.36;100321.44;5138131;27;8829;-58
2022/11/10 05:37:59;;;;;;;;;4.00;3.00;;;;;11.33;75.67;100319.75;5138862;27;8910;-58
2022/11/10 05:40:27;;;;;;;;;4.50;3.50;;;;;11.29;75.13;100329.81;5139337;27;8836;-58
2022/11/10 05:42:55;;;;;;;;;2.00;1.50;;;;;11.30;75.16;100341.31;5139565;27;8914;-58
2022/11/10 05:45:23;;;;;;;;;3.25;2.00;;;;;11.26;75.38;100338.03;5139315;27;8836;-58
2022/11/10 05:47:51;;;;;;;;;4.00;3.00;;;;;11.24;75.70;100341.78;5139298;27;8813;-58
2022/11/10 05:50:18;;;;;;;;;3.00;2.00;;;;;11.23;75.72;100348.91;5138865;27;8852;-58
2022/11/10 05:52:46;;;;;;;;;1.00;0.50;;;;;11.23;75.62;100359.59;5139135;27;8833;-55
2022/11/10 05:55:17;;;;;;;;;4.00;3.50;;;;;11.20;75.21;100357.16;5138872;27;8952;-57
2022/11/10 05:57:45;;;;;;;;;4.00;3.25;;;;;11.20;75.84;100354.50;5138821;27;8810;-58
2022/11/10 06:00:13;;;;;;;;;0.00;0.00;;;;;11.20;76.02;100372.28;5138217;27;8927;-58
2022/11/10 06:02:40;;;;;;;;;3.75;3.00;;;;;11.17;75.73;100375.19;5138196;27;8818;-58
2022/11/10 06:05:08;;;;;;;;;4.00;4.00;;;;;11.16;76.04;100376.16;5138287;27;8842;-58
2022/11/10 06:07:36;;;;;;;;;3.00;3.00;;;;;11.16;75.74;100382.34;5137742;27;8826;-58
2022/11/10 06:10:03;;;;;;;;;3.75;3.75;;;;;11.17;75.76;100378.72;5137784;27;8834;-57
2022/11/10 06:12:31;;;;;;;;;3.00;3.00;;;;;11.18;75.88;100380.44;5138373;27;8818;-58
2022/11/10 06:14:59;;;;;;;;;4.25;3.75;;;;;11.17;75.96;100370.75;5138101;27;8886;-58
2022/11/10 06:17:26;;;;;;;;;3.25;3.25;;;;;11.16;76.00;100386.84;5138017;27;8818;-57
2022/11/10 06:19:55;;;;;;;;;4.50;4.50;;;;;11.14;76.01;100391.44;5136660;27;8941;-57
2022/11/10 06:22:23;;;;;;;;;4.00;4.00;;;;;11.11;76.21;100389.84;5136577;27;8848;-58
2022/11/10 06:24:51;;;;;;;;;3.75;3.75;;;;;11.11;75.77;100392.50;5135568;27;8822;-58
2022/11/10 06:27:18;;;;;;;;;3.75;3.00;;;;;11.15;75.91;100401.97;5135165;27;8817;-58
2022/11/10 06:29:46;;;;;;;;;4.00;4.00;;;;;11.20;75.88;100404.28;5136212;27;8844;-58
2022/11/10 06:32:15;;;;;;;;;3.75;3.00;;;;;11.23;75.79;100409.41;5135515;27;9532;-58
2022/11/10 06:34:44;;;;;;;;;2.00;1.00;;;;;11.27;75.84;100419.72;5134607;27;8860;-58
2022/11/10 06:37:11;;;;;;;;;2.00;2.00;;;;;11.28;76.03;100412.56;5134808;27;8814;-58
2022/11/10 06:39:39;;;;;;;;;4.25;4.25;;;;;11.30;76.11;100421.31;5134834;27;8844;-57
2022/11/10 06:42:07;;;;;;;;;8.00;6.50;;;;;11.27;75.61;100422.38;5134311;27;8851;-58
2022/11/10 06:44:35;;;;;;;;;3.50;3.25;;;;;11.24;76.08;100425.25;5134758;27;8876;-58
2022/11/10 06:47:03;;;;;;;;;3.00;2.50;;;;;11.20;76.17;100426.47;5135112;27;8825;-58
2022/11/10 06:49:31;;;;;;;;;4.50;4.50;;;;;11.18;76.38;100431.06;5135961;27;8870;-58
2022/11/10 06:51:59;;;;;;;;;4.00;3.50;;;;;11.18;76.10;100431.06;5135199;27;8855;-58
2022/11/10 06:54:26;;;;;;;;;4.00;3.75;;;;;11.18;75.90;100443.53;5135124;27;8826;-58
2022/11/10 06:56:54;;;;;;;;;0.00;0.00;;;;;11.15;76.40;100444.59;5134093;27;8842;-57
2022/11/10 06:59:22;;;;;;;;;3.75;3.75;;;;;11.15;76.39;100452.59;5134725;27;8836;-58
2022/11/10 07:01:50;;;;;;;;;3.75;3.25;;;;;11.13;76.41;100457.22;5134473;27;8837;-58
2022/11/10 07:04:18;;;;;;;;;4.00;3.50;;;;;11.14;76.43;100452.75;5134022;27;9247;-57
2022/11/10 07:06:47;;;;;;;;;3.50;3.50;;;;;11.12;76.49;100465.31;5133068;27;8833;-58
2022/11/10 07:09:15;;;;;;;;;4.75;4.75;;;;;11.12;76.08;100465.31;5132892;27;8833;-58
2022/11/10 07:11:43;;;;;;;;;2.00;1.00;;;;;11.11;76.30;100467.13;5132901;27;8944;-58
2022/11/10 07:14:11;;;;;;;;;4.50;3.50;;;;;11.11;76.43;100463.59;5132806;27;8840;-58
2022/11/10 07:16:38;;;;;;;;;1.00;1.00;;;;;11.10;76.69;100470.78;5131381;27;8852;-58
2022/11/10 07:19:06;;;;;;;;;1.00;1.00;;;;;11.11;76.03;100474.28;5130795;27;8829;-56
2022/11/10 07:21:34;;;;;;;;;7.00;5.00;;;;;11.13;75.99;100473.19;5130548;27;8828;-58
2022/11/10 07:24:02;;;;;;;;;4.00;3.75;;;;;11.19;76.23;100483.41;5131708;27;8822;-58
2022/11/10 07:26:29;;;;;;;;;5.25;5.25;;;;;11.23;75.83;100478.72;5132720;27;8856;-57
2022/11/10 07:28:57;;;;;;;;;4.00;3.75;;;;;11.25;76.41;100474.97;5134389;27;8860;-58
2022/11/10 07:31:25;;;;;;;;;5.50;5.50;;;;;11.27;76.27;100481.03;5134541;27;8821;-56
2022/11/10 07:33:55;;;;;;;;;3.00;3.00;;;;;11.27;76.53;100485.50;5134603;27;8840;-58
2022/11/10 07:36:22;;;;;;;;;3.75;3.50;;;;;11.29;75.96;100489.75;5135012;27;8843;-57
2022/11/10 07:38:50;;;;;;;;;5.50;4.00;;;;;11.32;76.13;100494.03;5135548;27;8838;-57
2022/11/10 07:41:18;;;;;;;;;0.00;0.00;;;;;11.37;75.95;100491.88;5135427;27;8822;-58
2022/11/10 07:43:46;;;;;;;;;3.00;2.50;;;;;11.41;75.81;100504.88;5134592;27;8951;-56
2022/11/10 07:46:14;;;;;;;;;3.00;3.00;;;;;11.46;75.66;100504.53;5133679;27;8829;-57
2022/11/10 07:48:43;;;;;;;;;3.00;3.00;;;;;11.51;76.07;100500.53;5133477;27;8948;-58
2022/11/10 07:51:11;;;;;;;;;4.00;4.00;;;;;11.55;76.03;100507.38;5132679;27;8841;-57
2022/11/10 07:53:40;;;;;;;;;3.75;3.00;;;;;11.59;75.25;100503.53;5132098;27;8821;-57
2022/11/10 07:56:08;;;;;;;;;3.00;3.00;;;;;11.63;75.54;100514.81;5131540;27;8822;-58
2022/11/10 07:58:36;;;;;;;;;4.00;3.00;;;;;11.67;75.53;100506.47;5131932;27;8898;-57
2022/11/10 08:01:04;;;;;;;;;5.50;5.50;;;;;11.72;75.17;100511.44;5132728;27;8916;-57
2022/11/10 08:03:32;;;;;;;;;3.25;3.25;;;;;11.77;75.06;100523.50;5132825;27;8860;-57
2022/11/10 08:06:00;;;;;;;;;6.00;5.00;;;;;11.82;75.36;100531.16;5132331;27;8833;-58
2022/11/10 08:08:28;;;;;;;;;3.00;2.50;;;;;11.92;75.09;100543.69;5131821;27;8846;-58
2022/11/10 08:10:57;;;;;;;;;3.00;3.00;;;;;12.03;75.23;100541.91;5131639;27;8864;-57
2022/11/10 08:13:25;;;;;;;;;6.50;6.00;;;;;12.15;74.82;100545.47;5132404;27;8842;-58
2022/11/10 08:15:53;;;;;;;;;4.50;4.50;;;;;12.22;74.50;100552.88;5132539;27;9528;-56
2022/11/10 08:18:20;;;;;;;;;1.00;1.00;;;;;12.23;74.85;100546.56;5132173;27;8818;-58
2022/11/10 08:20:48;;;;;;;;;4.50;4.00;;;;;12.22;74.89;100552.00;5131297;27;8864;-57
2022/11/10 08:23:18;;;;;;;;;3.00;1.00;;;;;12.23;74.59;100559.09;5131353;27;8813;-56
2022/11/10 08:25:46;;;;;;;;;4.00;4.00;;;;;12.23;74.63;100561.75;5130591;27;8857;-58
2022/11/10 08:28:14;;;;;;;;;3.00;3.00;;;;;12.26;74.86;100567.72;5131858;27;8928;-55
2022/11/10 08:30:42;;;;;;;;;7.50;5.50;;;;;12.34;74.27;100572.44;5131916;27;8829;-57
2022/11/10 08:33:10;;;;;;;;;6.25;4.00;;;;;12.42;74.39;100575.38;5132860;27;9524;-57
2022/11/10 08:35:38;;;;;;;;;3.25;3.25;;;;;12.42;73.81;100578.91;5133438;27;8864;-56
2022/11/10 08:38:07;;;;;;;;;5.00;5.00;;;;;12.39;73.99;100586.31;5133741;27;8861;-56
2022/11/10 08:40:36;;;;;;;;;3.00;3.00;;;;;12.41;74.25;100593.25;5134299;27;8841;-55
2022/11/10 08:43:06;;;;;;;;;3.00;3.00;;;;;12.42;74.21;100591.41;5133124;27;8845;-56
2022/11/10 08:45:34;;;;;;;;;3.25;3.25;;;;;12.46;74.59;100592.88;5133985;27;8910;-56
2022/11/10 08:48:02;;;;;;;;;6.00;5.00;;;;;12.50;74.00;100589.88;5133545;27;8833;-58
2022/11/10 08:50:30;;;;;;;;;5.50;5.50;;;;;12.54;74.48;100587.81;5133623;27;8822;-58
2022/11/10 08:52:58;;;;;;;;;8.00;7.00;;;;;12.55;74.26;100601.03;5133053;27;8821;-56
2022/11/10 08:55:26;;;;;;;;;6.00;6.00;;;;;12.59;73.92;100596.28;5132476;27;8829;-57
2022/11/10 08:57:54;;;;;;;;;4.00;3.75;;;;;12.63;74.14;100605.78;5132612;27;8821;-57
2022/11/10 09:00:24;;;;;;;;;4.50;3.75;;;;;12.65;74.02;100609.19;5132083;27;8826;-57
2022/11/10 09:02:52;;;;;;;;;7.50;4.50;;;;;12.66;74.06;100608.22;5133277;27;8829;-55
2022/11/10 09:05:20;;;;;;;;;4.25;4.25;;;;;12.70;73.90;100623.06;5133673;27;8833;-58
2022/11/10 09:07:48;;;;;;;;;4.50;4.50;;;;;12.75;73.65;100619.03;5133497;27;8858;-56
2022/11/10 09:10:16;;;;;;;;;3.25;3.00;;;;;12.81;73.69;100625.72;5134296;27;8871;-58
2022/11/10 09:12:45;;;;;;;;;6.75;6.25;;;;;12.84;73.59;100625.50;5133546;27;8857;-58
2022/11/10 09:15:13;;;;;;;;;3.00;3.00;;;;;12.90;73.22;100635.72;5132621;27;8837;-58
2022/11/10 09:17:41;;;;;;;;;3.25;3.25;;;;;12.95;73.73;100638.91;5132679;27;8909;-57
2022/11/10 09:20:09;;;;;;;;;4.50;4.50;;;;;12.99;73.41;100635.88;5132448;27;8841;-58
2022/11/10 09:22:37;;;;;;;;;5.50;4.00;;;;;13.06;73.38;100641.59;5131882;27;8861;-57
2022/11/10 09:25:04;;;;;;;;;5.50;4.50;;;;;13.11;72.91;100629.56;5132540;27;8829;-58
2022/11/10 09:27:33;;;;;;;;;3.75;3.50;;;;;13.18;72.90;100635.28;5131943;27;8952;-58
2022/11/10 09:30:01;;;;;;;;;0.75;0.00;;;;;13.24;73.00;100642.81;5131950;27;8922;-58
2022/11/10 09:32:30;;;;;;;;;3.50;3.50;;;;;13.31;72.31;100657.41;5131559;27;8825;-58
2022/11/10 09:34:58;;;;;;;;;3.50;3.50;;;;;13.37;72.35;100640.88;5131277;27;8821;-58
2022/11/10 09:37:26;;;;;;;;;3.75;3.75;;;;;13.48;72.28;100635.50;5128874;27;8828;-58
2022/11/10 09:39:54;;;;;;;;;3.50;3.50;;;;;13.59;72.36;100643.53;5129860;27;8952;-58
2022/11/10 09:42:28;;;;;;;;;6.00;4.25;;;;;13.72;71.58;100642.41;5131225;27;8830;-58
2022/11/10 09:44:55;;;;;;;;;7.75;6.00;;;;;13.90;70.96;100656.97;5133648;27;8898;-58
2022/11/10 09:47:23;;;;;;;;;5.00;3.00;;;;;14.12;71.21;100650.69;5134937;27;8837;-58
2022/11/10 09:50:11;;;;;;;;;4.00;3.75;;;;;14.31;70.99;100642.84;5134421;27;8846;-58
2022/11/10 09:52:39;;;;;;;;;3.25;3.25;;;;;14.50;71.03;100648.38;5135338;27;8825;-57
2022/11/10 09:55:06;;;;;;;;;3.75;3.75;;;;;14.72;70.48;100656.31;5135316;27;8829;-58
2022/11/10 09:57:34;;;;;;;;;3.50;3.00;;;;;14.89;69.37;100658.38;5135504;27;8821;-58
2022/11/10 10:00:02;;;;;;;;;6.00;3.50;;;;;15.16;68.96;100653.31;5135800;27;8822;-58
2022/11/10 10:02:34;;;;;;;;;6.00;4.50;;;;;15.53;67.74;100657.16;5136047;27;8849;-58
2022/11/10 10:05:02;;;;;;;;;3.00;1.50;;;;;15.67;67.83;100657.66;5135767;27;8869;-58
2022/11/10 10:07:31;;;;;;;;;2.00;2.00;;;;;15.67;67.48;100663.03;5133572;27;8845;-58
2022/11/10 10:09:59;;;;;;;;;3.00;3.00;;;;;15.49;68.27;100674.56;5134799;27;8841;-58
2022/11/10 10:12:27;;;;;;;;;3.50;2.50;;;;;15.38;68.54;100667.44;5135277;27;8849;-59
2022/11/10 10:14:58;;;;;;;;;3.00;1.50;;;;;15.46;68.86;100680.19;5134730;27;8829;-58
2022/11/10 10:17:26;;;;;;;;;3.50;3.00;;;;;15.42;68.63;100668.03;5134427;27;8849;-58
2022/11/10 10:19:54;;;;;;;;;1.50;1.50;;;;;15.34;68.83;100673.22;5134566;27;8841;-58
2022/11/10 10:22:22;;;;;;;;;2.50;2.50;;;;;15.29;68.82;100667.34;5135083;27;9509;-58
2022/11/10 10:24:52;;;;;;;;;1.00;1.00;;;;;15.27;68.75;100663.97;5134055;27;8834;-58
2022/11/10 10:27:19;;;;;;;;;1.00;1.00;;;;;15.28;69.03;100662.97;5133712;27;8951;-58
2022/11/10 10:29:49;;;;;;;;;4.00;4.00;;;;;15.25;68.90;100676.66;5134211;27;9492;-58
2022/11/10 10:32:16;;;;;;;;;3.25;3.25;;;;;15.23;69.09;100673.25;5134527;27;8921;-58
2022/11/10 10:34:44;;;;;;;;;0.50;0.50;;;;;15.35;68.68;100675.78;5134399;27;9537;-58
2022/11/10 10:37:12;;;;;;;;;1.00;1.00;;;;;15.57;67.90;100672.03;5133819;27;8833;-58
2022/11/10 10:39:40;;;;;;;;;3.00;3.00;;;;;15.88;67.80;100676.38;5132900;27;8841;-58
2022/11/10 10:42:08;;;;;;;;;2.00;2.00;;;;;16.11;66.45;100667.94;5133456;27;9527;-58
2022/11/10 10:44:36;;;;;;;;;3.25;3.25;;;;;16.27;65.88;100677.13;5133316;27;8955;-57
2022/11/10 10:47:04;;;;;;;;;1.00;1.00;;;;;16.34;66.31;100680.97;5131963;27;8825;-58
2022/11/10 10:49:32;;;;;;;;;3.75;3.75;;;;;16.35;65.61;100688.03;5132625;27;9496;-57
2022/11/10 10:52:02;;;;;;;;;4.00;3.00;;;;;16.44;65.77;100698.00;5132407;27;8845;-56
2022/11/10 10:54:30;;;;;;;;;3.20;3.20;;;;;16.44;65.57;100681.00;5132283;27;8833;-58
2022/11/10 10:56:58;;;;;;;;;2.20;2.20;;;;;16.33;65.63;100687.34;5133451;27;8902;-58
2022/11/10 10:59:26;;;;;;;;;3.50;3.00;;;;;16.24;65.96;100673.88;5133602;27;8940;-58
2022/11/10 11:01:54;;;;;;;;;3.00;2.60;;;;;16.10;65.93;100677.00;5134131;27;8848;-58
2022/11/10 11:04:23;;;;;;;;;3.00;3.00;;;;;15.91;65.68;100681.50;5133446;27;8833;-59
2022/11/10 11:06:52;;;;;;;;;1.00;1.00;;;;;15.75;65.87;100679.31;5133529;27;8825;-58
2022/11/10 11:09:20;;;;;;;;;4.00;4.00;;;;;15.59;66.53;100675.44;5132489;27;8853;-58
2022/11/10 11:11:47;;;;;;;;;0.75;0.00;;;;;15.49;66.15;100687.97;5132981;27;8849;-58
2022/11/10 11:14:15;;;;;;;;;3.00;1.00;;;;;15.46;66.33;100707.88;5133562;27;8914;-57
2022/11/10 11:16:44;;;;;;;;;1.50;1.50;;;;;15.43;66.28;100699.25;5132971;27;8837;-58
2022/11/10 11:19:12;;;;;;;;;3.00;3.00;;;;;15.42;66.35;100702.91;5133170;27;8952;-57
2022/11/10 11:21:40;;;;;;;;;2.00;1.00;;;;;15.48;66.53;100715.81;5132759;27;8825;-57
2022/11/10 11:24:08;;;;;;;;;2.50;2.50;;;;;15.48;66.16;100711.28;5132003;27;8859;-57
2022/11/10 11:26:36;;;;;;;;;1.00;1.00;;;;;15.45;66.51;100716.06;5131344;27;8841;-58
2022/11/10 11:29:04;;;;;;;;;3.75;3.00;;;;;15.39;66.36;100716.63;5130835;27;8834;-58
2022/11/10 11:31:32;;;;;;;;;1.00;1.00;;;;;15.40;66.59;100721.81;5132973;27;8818;-58
2022/11/10 11:34:06;;;;;;;;;1.00;1.00;;;;;15.62;65.95;100723.50;5132147;27;8829;-58
2022/11/10 11:36:34;;;;;;;;;3.00;1.00;;;;;15.86;64.75;100721.34;5132195;27;8947;-58
2022/11/10 11:39:02;;;;;;;;;2.00;1.00;;;;;15.91;65.19;100719.94;5132989;27;8853;-58
2022/11/10 11:41:32;;;;;;;;;1.00;1.00;;;;;15.79;65.54;100725.53;5133378;27;8853;-59
2022/11/10 11:44:00;;;;;;;;;2.00;2.00;;;;;15.77;65.29;100722.16;5132577;27;8833;-58
2022/11/10 11:46:28;;;;;;;;;1.00;1.00;;;;;15.89;64.89;100721.91;5132286;27;8955;-58
2022/11/10 11:48:56;;;;;;;;;0.00;0.00;;;;;15.99;64.57;100722.78;5132258;27;8849;-58
2022/11/10 11:51:24;;;;;;;;;2.60;1.80;;;;;16.01;64.49;100720.78;5132705;27;8829;-58
2022/11/10 11:53:51;;;;;;;;;1.00;1.00;;;;;16.04;64.63;100738.47;5131649;27;8805;-58
2022/11/10 11:56:19;;;;;;;;;2.00;0.80;;;;;16.15;64.26;100743.75;5132481;27;8865;-58
2022/11/10 11:58:47;;;;;;;;;3.00;2.60;;;;;16.22;63.93;100739.53;5132216;27;8929;-58
2022/11/10 12:01:15;;;;;;;;;3.50;3.00;;;;;16.22;63.97;100744.91;5131545;27;8833;-58
2022/11/10 12:03:46;;;;;;;;;0.20;0.20;;;;;16.27;63.97;100738.97;5131182;27;8857;-58